createdAt,value
2023-01-09T13:08:01.809Z,1.35
2023-01-09T13:10:33.285Z,1.17
2023-01-09T13:13:08.451Z,1.05
2023-01-09T13:15:45.512Z,1.10
2023-01-09T13:18:45.231Z,0.90
2023-01-09T13:21:13.620Z,0.80
2023-01-09T13:28:49.580Z,0.90
2023-01-09T13:31:35.481Z,0.95
2023-01-09T14:07:35.950Z,0.90
2023-01-09T14:10:07.447Z,0.90
2023-01-09T14:12:41.931Z,0.90
2023-01-09T14:15:31.275Z,1.08
2023-01-09T14:18:14.714Z,0.90
2023-01-09T14:22:29.413Z,974.80
2023-01-09T14:25:02.935Z,974.78
2023-01-09T14:27:51.691Z,966.30
2023-01-09T14:30:38.931Z,961.47
2023-01-09T14:33:18.408Z,963.20
2023-01-09T14:36:10.013Z,959.20
2023-01-09T14:38:53.046Z,957.33
2023-01-09T14:41:56.320Z,957.30
2023-01-09T14:44:33.773Z,955.78
2023-01-09T14:47:16.362Z,957.08
2023-01-09T14:49:55.087Z,956.15
2023-01-09T14:52:38.484Z,961.03
2023-01-09T14:55:24.908Z,960.80
2023-01-09T14:57:54.739Z,965.53
2023-01-09T15:00:23.201Z,962.40
2023-01-09T15:02:52.629Z,965.45
2023-01-09T15:05:23.528Z,968.97
2023-01-09T15:07:57.550Z,965.10
2023-01-09T15:10:37.275Z,961.85
2023-01-09T15:13:08.156Z,959.00
2023-01-09T15:15:35.915Z,967.03
2023-01-09T15:18:07.771Z,963.80
2023-01-09T15:20:35.026Z,967.38
2023-01-09T15:23:05.306Z,964.70
2023-01-09T15:25:40.500Z,972.03
2023-01-09T15:28:28.087Z,970.70
2023-01-09T15:30:58.144Z,977.95
2023-01-09T15:33:26.231Z,977.35
2023-01-09T15:35:59.825Z,965.90
2023-01-09T15:38:29.443Z,968.63
2023-01-09T15:41:01.202Z,967.25
2023-01-09T15:43:31.170Z,967.20
2023-01-09T15:45:59.006Z,978.70
2023-01-09T15:48:29.673Z,964.15
2023-01-09T15:51:06.721Z,970.13
2023-01-09T15:53:34.116Z,967.17
2023-01-09T15:56:17.042Z,973.88
2023-01-09T15:58:47.218Z,968.00
2023-01-09T16:01:39.532Z,963.13
2023-01-09T16:04:18.035Z,964.83
2023-01-09T16:06:50.925Z,967.65
2023-01-09T16:09:25.853Z,969.95
2023-01-09T16:11:55.789Z,952.95
2023-01-09T16:14:38.336Z,958.00
2023-01-09T16:17:15.151Z,962.78
2023-01-09T16:19:59.350Z,956.60
2023-01-09T16:22:26.085Z,960.47
2023-01-09T16:24:54.303Z,962.70
2023-01-09T16:27:24.093Z,958.55
2023-01-09T16:29:58.188Z,965.20
2023-01-09T16:32:45.774Z,966.80
2023-01-09T16:35:18.370Z,970.70
2023-01-09T16:37:47.695Z,968.22
2023-01-09T16:40:14.340Z,967.70
2023-01-09T16:42:59.712Z,971.38
2023-01-09T16:45:39.926Z,967.85
2023-01-09T16:48:21.608Z,977.07
2023-01-09T16:50:48.623Z,983.75
2023-01-09T16:53:16.749Z,982.15
2023-01-09T16:55:44.794Z,982.50
2023-01-09T16:58:18.385Z,999.90
2023-01-09T17:00:47.803Z,981.95
2023-01-09T17:03:15.494Z,977.05
2023-01-09T17:05:43.198Z,992.03
2023-01-09T17:08:19.178Z,992.83
2023-01-09T17:10:45.887Z,989.45
2023-01-09T17:13:12.596Z,998.40
2023-01-09T17:15:39.288Z,985.22
2023-01-09T17:18:19.589Z,970.63
2023-01-09T17:20:49.945Z,963.75
2023-01-09T17:23:17.272Z,999.90
2023-01-09T17:26:02.795Z,981.72
2023-01-09T17:28:33.125Z,999.90
2023-01-09T17:31:00.509Z,999.90
2023-01-09T17:33:28.063Z,999.90
2023-01-09T17:35:55.390Z,999.90
2023-01-09T17:38:22.230Z,999.90
2023-01-09T17:40:50.268Z,999.90
2023-01-09T17:43:18.711Z,999.90
2023-01-09T17:45:45.585Z,999.90
2023-01-09T17:48:17.392Z,999.90
2023-01-09T17:50:45.655Z,999.90
2023-01-09T17:53:13.065Z,999.90
2023-01-09T17:55:45.573Z,999.90
2023-01-09T17:58:25.116Z,999.90
2023-01-09T18:00:51.941Z,999.90
2023-01-09T18:03:23.128Z,999.90
2023-01-09T18:05:50.293Z,999.90
2023-01-09T18:08:17.169Z,999.90
2023-01-09T18:10:48.317Z,999.90
2023-01-09T18:13:16.568Z,999.90
2023-01-09T18:15:44.675Z,962.75
2023-01-09T18:18:12.840Z,429.48
2023-01-09T18:20:41.009Z,999.90
2023-01-09T18:23:08.575Z,471.67
2023-01-09T18:25:38.630Z,395.08
2023-01-09T18:28:05.397Z,413.00
2023-01-09T18:30:32.241Z,999.90
2023-01-09T18:32:58.966Z,395.90
2023-01-09T18:35:25.628Z,415.83
2023-01-09T18:37:53.327Z,797.27
2023-01-09T18:40:20.149Z,405.08
2023-01-09T18:42:48.388Z,527.78
2023-01-09T18:45:15.183Z,413.63
2023-01-09T18:47:41.937Z,415.93
2023-01-09T18:50:10.388Z,426.37
2023-01-09T18:52:37.162Z,461.75
2023-01-09T18:55:04.334Z,471.88
2023-01-09T18:57:31.126Z,459.52
2023-01-09T18:59:57.904Z,463.88
2023-01-09T19:02:26.762Z,467.95
2023-01-09T19:04:53.680Z,442.65
2023-01-09T19:07:20.665Z,459.73
2023-01-09T19:09:47.482Z,471.42
2023-01-09T19:12:14.277Z,475.17
2023-01-09T19:14:41.512Z,477.38
2023-01-09T19:17:08.281Z,462.83
2023-01-09T19:19:34.945Z,462.73
2023-01-09T19:22:01.785Z,462.42
2023-01-09T19:24:28.542Z,469.90
2023-01-09T19:26:55.309Z,467.08
2023-01-09T19:29:21.961Z,459.00
2023-01-09T19:31:48.899Z,476.13
2023-01-09T19:34:18.645Z,469.42
2023-01-09T19:36:47.480Z,468.95
2023-01-09T19:39:15.082Z,434.83
2023-01-09T19:41:42.255Z,473.17
2023-01-09T19:44:09.447Z,472.98
2023-01-09T19:46:38.436Z,458.73
2023-01-09T19:49:06.219Z,429.08
2023-01-09T19:51:34.002Z,461.95
2023-01-09T19:56:33.883Z,487.45
2023-01-09T19:59:03.418Z,432.80
2023-01-09T20:01:32.906Z,431.48
2023-01-09T20:04:03.926Z,485.88
2023-01-09T20:06:32.037Z,487.27
2023-01-09T20:09:01.320Z,473.38
2023-01-09T20:11:31.693Z,460.85
2023-01-09T20:13:58.610Z,460.85
2023-01-09T20:16:28.481Z,450.08
2023-01-09T20:18:57.909Z,448.58
2023-01-09T20:21:26.392Z,455.63
2023-01-09T20:23:55.111Z,412.03
2023-01-09T20:26:24.604Z,466.05
2023-01-09T20:28:52.350Z,449.45
2023-01-09T20:31:21.702Z,430.73
2023-01-09T20:33:50.987Z,420.30
2023-01-09T20:36:21.337Z,432.00
2023-01-09T20:38:48.185Z,436.90
2023-01-09T20:41:22.999Z,399.85
2023-01-09T20:44:03.443Z,435.17
2023-01-09T20:46:33.774Z,414.00
2023-01-09T20:49:06.342Z,435.38
2023-01-09T20:51:42.722Z,407.25
2023-01-09T20:54:09.574Z,407.73
2023-01-09T20:56:36.797Z,418.07
2023-01-09T20:59:06.129Z,413.20
2023-01-09T21:01:34.358Z,417.50
2023-01-09T21:04:01.132Z,419.73
2023-01-09T21:06:28.152Z,422.60
2023-01-09T21:08:55.232Z,422.30
2023-01-09T21:11:22.595Z,446.40
2023-01-09T21:13:50.287Z,413.87
2023-01-09T21:16:24.285Z,411.58
2023-01-09T21:18:51.966Z,421.43
2023-01-09T21:21:21.984Z,407.25
2023-01-09T21:23:51.899Z,403.40
2023-01-09T21:26:22.408Z,411.87
2023-01-09T21:28:51.115Z,414.85
2023-01-09T21:31:20.632Z,409.27
2023-01-09T21:33:48.313Z,420.63
2023-01-09T21:36:15.837Z,415.93
2023-01-09T21:38:43.694Z,419.00
2023-01-09T21:41:29.200Z,851.10
2023-01-09T21:44:14.769Z,553.78
2023-01-09T21:46:57.426Z,445.63
2023-01-09T21:49:26.378Z,453.08
2023-01-09T21:51:54.121Z,473.52
2023-01-09T21:54:23.112Z,419.10
2023-01-09T21:56:50.691Z,412.73
2023-01-09T21:59:17.991Z,458.98
2023-01-09T22:01:45.310Z,668.42
2023-01-09T22:04:14.294Z,450.27
2023-01-09T22:06:41.175Z,631.85
2023-01-09T22:09:07.987Z,658.83
2023-01-09T22:11:34.829Z,625.22
2023-01-09T22:14:01.559Z,549.63
2023-01-09T22:16:28.606Z,596.67
2023-01-09T22:18:56.450Z,507.38
2023-01-09T22:21:24.869Z,661.05
2023-01-09T22:23:52.178Z,528.45
2023-01-09T22:26:19.545Z,447.73
2023-01-09T22:28:47.036Z,999.90
2023-01-09T22:31:20.813Z,499.27
2023-01-09T22:33:55.346Z,433.63
2023-01-09T22:36:22.032Z,487.03
2023-01-09T22:38:48.832Z,458.67
2023-01-09T22:41:15.562Z,501.17
2023-01-09T22:43:42.298Z,467.38
2023-01-09T22:46:11.532Z,661.03
2023-01-09T22:48:39.805Z,480.73
2023-01-09T22:51:11.416Z,587.10
2023-01-09T22:53:38.465Z,497.37
2023-01-09T22:56:10.354Z,424.58
2023-01-09T22:58:37.309Z,449.02
2023-01-09T23:01:04.214Z,548.08
2023-01-09T23:03:31.289Z,590.40
2023-01-09T23:06:07.686Z,524.63
2023-01-09T23:08:35.323Z,571.33
2023-01-09T23:11:03.621Z,628.13
2023-01-09T23:13:30.459Z,513.47
2023-01-09T23:15:57.532Z,463.38
2023-01-09T23:18:24.436Z,569.70
2023-01-09T23:21:03.878Z,559.92
2023-01-09T23:23:31.656Z,589.80
2023-01-09T23:26:02.110Z,999.90
2023-01-09T23:28:30.482Z,999.90
2023-01-09T23:30:57.671Z,999.90
2023-01-09T23:33:25.148Z,999.90
2023-01-09T23:35:51.833Z,990.05
2023-01-09T23:38:18.693Z,993.72
2023-01-09T23:40:45.404Z,999.90
2023-01-09T23:43:14.903Z,999.90
2023-01-09T23:45:43.593Z,999.90
2023-01-09T23:48:14.032Z,999.90
2023-01-09T23:50:48.574Z,999.90
2023-01-09T23:53:15.657Z,414.80
2023-01-09T23:55:43.395Z,419.05
2023-01-09T23:58:10.267Z,592.28
